Norfolk, Virginia
Traffic Map
Current Weather Conditions
Norfolk, Virginia
Overcast
Overcast
21°
Feels Like: 21°
Wind Chill: 21° Ceiling: 1200
Heat Index: 21° Visibility: 10mi
Dew Point: 18° Wind: 0mph
Humidity: 84% Direction: ° ()
Pressure: 30.14in Gusts: 0mph
Raw Report DataKORF 270351Z AUTO 00000KT 10SM OVC012 21/18 A3014 RMK AO2 SLP207 T02110183 TSNO
Traffic Incident Summary
Active as of:
Severity:
Category:
InformationThere was an issue retrieving the traffic information for this location. Please try a different location or try again shortly.
Advertisements
Track Severe Weather on mobile